Time;durP1;ratioP1;P1;durP2;ratioP2;P2;SDS_P1;SDS_P2;PMS_P1;PMS_P2;Temp;Humidity;BMP_temperature;BMP_pressure;BME280_temperature;BME280_humidity;BME280_pressure;Samples;Min_cycle;Max_cycle;Signal;HPM_P1;HPM_P2
2022/04/04 00:02:25;;;;;;;8.70;4.50;;;7.40;49.40;;;;;;5078022;28;20052;-45
2022/04/04 00:04:52;;;;;;;6.07;4.65;;;7.40;49.40;;;;;;5080447;28;20423;-44
2022/04/04 00:07:20;;;;;;;7.20;4.95;;;7.30;49.40;;;;;;5080531;28;20048;-44
2022/04/04 00:09:49;;;;;;;8.15;4.95;;;7.30;49.40;;;;;;5079295;28;20051;-45
2022/04/04 00:12:16;;;;;;;9.02;5.68;;;7.30;49.50;;;;;;5075450;28;20052;-44
2022/04/04 00:14:44;;;;;;;7.80;5.43;;;7.20;49.50;;;;;;5077883;28;20048;-44
2022/04/04 00:17:11;;;;;;;7.63;5.00;;;7.20;49.50;;;;;;5079302;28;20776;-45
2022/04/04 00:19:39;;;;;;;7.05;4.45;;;7.20;49.50;;;;;;5077014;28;20497;-44
2022/04/04 00:22:07;;;;;;;7.47;4.65;;;7.20;49.50;;;;;;5079733;28;20055;-43
2022/04/04 00:24:35;;;;;;;5.82;4.50;;;7.10;49.50;;;;;;5079745;28;20068;-46
2022/04/04 00:27:05;;;;;;;8.18;4.60;;;7.10;49.60;;;;;;5079150;28;20060;-43
2022/04/04 00:29:32;;;;;;;7.75;4.43;;;7.10;49.60;;;;;;5080890;28;20056;-43
2022/04/04 00:32:00;;;;;;;6.97;4.22;;;7.00;49.60;;;;;;5078133;28;20036;-49
2022/04/04 00:34:27;;;;;;;6.75;4.85;;;7.00;49.60;;;;;;5080372;28;20048;-44
2022/04/04 00:36:54;;;;;;;10.02;4.97;;;7.00;49.70;;;;;;5070931;28;20423;-43
2022/04/04 00:39:22;;;;;;;7.55;4.90;;;6.90;49.70;;;;;;5059454;28;20056;-44
2022/04/04 00:41:51;;;;;;;6.63;4.95;;;6.90;49.70;;;;;;5058456;28;20048;-44
2022/04/04 00:44:20;;;;;;;7.30;4.72;;;6.90;49.80;;;;;;5059151;28;20048;-45
2022/04/04 00:46:47;;;;;;;6.97;4.60;;;6.90;49.80;;;;;;5059440;28;20052;-43
2022/04/04 00:49:15;;;;;;;6.28;4.53;;;6.80;49.80;;;;;;5060231;28;20048;-43
2022/04/04 00:51:42;;;;;;;7.63;4.72;;;6.80;49.90;;;;;;5060070;28;20052;-44
2022/04/04 00:54:10;;;;;;;6.40;4.50;;;6.80;49.90;;;;;;5060990;28;20063;-47
2022/04/04 00:56:38;;;;;;;7.43;4.97;;;6.70;49.90;;;;;;5059585;28;20056;-43
2022/04/04 00:59:10;;;;;;;5.55;4.38;;;6.70;50.00;;;;;;5058930;28;20561;-44
2022/04/04 01:01:39;;;;;;;12.88;5.35;;;6.60;49.90;;;;;;5059242;28;20424;-43
2022/04/04 01:04:08;;;;;;;7.85;4.78;;;6.60;50.00;;;;;;5059305;28;20410;-43
2022/04/04 01:06:36;;;;;;;7.32;4.97;;;6.60;50.00;;;;;;5060285;28;20068;-43
2022/04/04 01:09:04;;;;;;;8.70;4.88;;;6.60;50.10;;;;;;5059616;28;20076;-45
2022/04/04 01:11:32;;;;;;;7.57;4.93;;;6.60;50.10;;;;;;5059322;28;20568;-43
2022/04/04 01:13:59;;;;;;;8.13;4.80;;;6.60;50.20;;;;;;5060857;28;20048;-44
2022/04/04 01:16:27;;;;;;;9.00;5.05;;;6.50;50.10;;;;;;5059881;28;20052;-43
2022/04/04 01:18:55;;;;;;;7.20;5.00;;;6.50;50.20;;;;;;5060872;28;20063;-43
2022/04/04 01:21:23;;;;;;;6.00;4.72;;;6.50;50.30;;;;;;5058195;28;20052;-44
2022/04/04 01:23:52;;;;;;;8.13;5.05;;;6.40;50.20;;;;;;5060479;28;20052;-45
2022/04/04 01:26:21;;;;;;;7.15;4.78;;;6.40;50.30;;;;;;5059290;28;20052;-44
2022/04/04 01:28:48;;;;;;;6.05;4.85;;;6.40;50.30;;;;;;5059686;28;20064;-45
2022/04/04 01:31:16;;;;;;;7.75;5.35;;;6.40;50.40;;;;;;5056018;28;20044;-44
2022/04/04 01:33:43;;;;;;;7.40;4.90;;;6.30;50.40;;;;;;5059651;28;20052;-44
2022/04/04 01:36:10;;;;;;;8.15;5.68;;;6.30;50.40;;;;;;5064480;28;20127;-43
2022/04/04 01:38:38;;;;;;;7.85;5.32;;;6.30;50.50;;;;;;5074682;28;20404;-44
2022/04/04 01:41:05;;;;;;;7.00;5.38;;;6.30;50.60;;;;;;5078238;28;20059;-43
2022/04/04 01:43:34;;;;;;;8.77;5.43;;;6.30;50.60;;;;;;5080188;28;20079;-43
2022/04/04 01:48:46;;;;;;;7.93;5.63;;;6.20;50.70;;;;;;5089565;28;20047;-43
2022/04/04 01:51:14;;;;;;;10.57;4.95;;;6.20;50.70;;;;;;5081920;28;20054;-47
2022/04/04 01:53:41;;;;;;;7.22;5.68;;;6.10;50.70;;;;;;5083940;28;20063;-49
2022/04/04 01:56:09;;;;;;;8.40;5.18;;;6.10;50.80;;;;;;5082846;28;20526;-43
2022/04/04 01:58:39;;;;;;;7.18;4.82;;;6.10;50.80;;;;;;5084325;28;20060;-45
2022/04/04 02:01:11;;;;;;;7.03;4.75;;;6.10;50.90;;;;;;5081746;28;20052;-43
2022/04/04 02:03:39;;;;;;;6.95;4.57;;;6.10;50.90;;;;;;5081540;28;20063;-44
2022/04/04 02:06:07;;;;;;;8.15;5.40;;;6.10;50.90;;;;;;5083521;28;20059;-43
2022/04/04 02:08:35;;;;;;;7.82;4.70;;;6.10;51.00;;;;;;5082810;28;20059;-44
2022/04/04 02:11:04;;;;;;;9.45;5.88;;;6.00;51.00;;;;;;5080933;28;20048;-45
2022/04/04 02:13:31;;;;;;;8.80;5.88;;;6.00;51.00;;;;;;5082850;28;20411;-43
2022/04/04 02:16:01;;;;;;;8.00;5.35;;;6.00;51.10;;;;;;5083977;28;20067;-43
2022/04/04 02:18:29;;;;;;;8.80;5.35;;;6.00;51.10;;;;;;5082138;28;20503;-44
2022/04/04 02:20:57;;;;;;;10.45;5.38;;;6.00;51.20;;;;;;5082522;28;20062;-43
2022/04/04 02:23:26;;;;;;;7.68;5.40;;;5.90;51.10;;;;;;5082185;28;20048;-44
2022/04/04 02:25:55;;;;;;;8.57;5.72;;;5.90;51.20;;;;;;5082015;28;20611;-47
2022/04/04 02:28:23;;;;;;;8.98;5.13;;;5.90;51.30;;;;;;5083352;28;20048;-43
2022/04/04 02:30:52;;;;;;;8.35;5.68;;;5.90;51.30;;;;;;5081684;28;20056;-43
2022/04/04 02:33:22;;;;;;;9.73;5.55;;;5.90;51.30;;;;;;5083462;28;20059;-43
2022/04/04 02:35:50;;;;;;;9.23;5.43;;;5.90;51.40;;;;;;5082502;28;20052;-44
2022/04/04 02:38:18;;;;;;;9.13;4.95;;;5.90;51.40;;;;;;5063085;28;20071;-45
2022/04/04 02:40:46;;;;;;;10.27;5.18;;;5.80;51.40;;;;;;5060192;28;20071;-44
2022/04/04 02:43:14;;;;;;;8.80;5.18;;;5.90;51.50;;;;;;5061993;28;20052;-46
2022/04/04 02:45:41;;;;;;;7.88;5.32;;;5.80;51.50;;;;;;5061943;28;20059;-44
2022/04/04 02:48:09;;;;;;;9.07;5.15;;;5.80;51.60;;;;;;5062249;28;20055;-43
2022/04/04 02:50:38;;;;;;;6.45;4.90;;;5.80;51.50;;;;;;5061337;28;20432;-44
2022/04/04 02:53:06;;;;;;;7.63;5.10;;;5.80;51.60;;;;;;5060304;28;20048;-44
2022/04/04 02:58:18;;;;;;;7.07;5.40;;;5.80;51.70;;;;;;5062007;28;20052;-44
2022/04/04 03:00:46;;;;;;;7.97;5.97;;;5.80;51.70;;;;;;5060694;28;20420;-43
2022/04/04 03:03:14;;;;;;;7.10;5.30;;;5.80;51.70;;;;;;5061399;28;20048;-44
2022/04/04 03:05:43;;;;;;;9.80;5.80;;;5.70;51.60;;;;;;5062037;28;20492;-44
2022/04/04 03:08:11;;;;;;;7.90;6.53;;;5.70;51.70;;;;;;5062278;28;20496;-43
2022/04/04 03:10:39;;;;;;;10.32;6.32;;;5.70;51.80;;;;;;5062430;28;20068;-44
2022/04/04 03:13:06;;;;;;;10.00;6.70;;;5.70;51.70;;;;;;5059086;28;20048;-48
2022/04/04 03:15:36;;;;;;;8.70;5.78;;;5.70;51.80;;;;;;5061532;28;20052;-43
2022/04/04 03:18:07;;;;;;;8.75;6.68;;;5.70;51.80;;;;;;5062898;28;20048;-43
2022/04/04 03:20:35;;;;;;;8.48;6.05;;;5.60;51.80;;;;;;5060123;28;20057;-43
2022/04/04 03:23:04;;;;;;;8.35;6.32;;;5.60;51.90;;;;;;5059704;28;20048;-43
2022/04/04 03:25:31;;;;;;;8.18;6.10;;;5.60;51.90;;;;;;5060675;28;20048;-44
2022/04/04 03:27:59;;;;;;;9.40;6.57;;;5.60;51.90;;;;;;5060570;28;20048;-44
2022/04/04 03:30:29;;;;;;;8.55;6.55;;;5.60;51.90;;;;;;5058466;28;20638;-44
2022/04/04 03:32:59;;;;;;;9.25;6.65;;;5.60;52.50;;;;;;5058984;28;20044;-43
2022/04/04 03:35:28;;;;;;;9.63;6.40;;;5.60;52.10;;;;;;5060973;28;20381;-43
2022/04/04 03:37:57;;;;;;;12.98;6.65;;;5.60;52.10;;;;;;5059593;28;20067;-46
2022/04/04 03:40:27;;;;;;;8.18;5.72;;;5.60;52.10;;;;;;5061334;28;20060;-43
2022/04/04 03:42:57;;;;;;;13.75;7.30;;;5.60;52.10;;;;;;5057572;28;20493;-43
2022/04/04 03:45:25;;;;;;;10.63;6.07;;;5.60;52.10;;;;;;5061505;28;20067;-44
2022/04/04 03:47:53;;;;;;;9.90;6.47;;;5.60;52.00;;;;;;5062341;28;20060;-44
2022/04/04 03:50:21;;;;;;;11.20;7.00;;;5.60;52.00;;;;;;5061083;28;20056;-46
2022/04/04 03:52:51;;;;;;;9.75;6.63;;;5.60;52.00;;;;;;5056285;28;20059;-44
2022/04/04 03:55:20;;;;;;;8.88;6.43;;;5.50;52.00;;;;;;5059384;28;20053;-43
2022/04/04 03:57:49;;;;;;;10.52;7.00;;;5.50;52.00;;;;;;5060809;28;20055;-43
2022/04/04 04:00:18;;;;;;;11.98;7.28;;;5.50;52.10;;;;;;5060392;28;20067;-44
2022/04/04 04:02:45;;;;;;;9.52;6.45;;;5.50;52.00;;;;;;5059472;28;20044;-45
2022/04/04 04:05:13;;;;;;;8.80;6.85;;;5.50;52.00;;;;;;5060936;28;20056;-44
2022/04/04 04:07:41;;;;;;;10.07;6.90;;;5.50;52.00;;;;;;5060290;28;20055;-44
2022/04/04 04:10:11;;;;;;;11.18;6.63;;;5.50;52.10;;;;;;5056512;28;20510;-45
2022/04/04 04:12:39;;;;;;;8.57;6.22;;;5.50;52.10;;;;;;5060922;28;20472;-44
2022/04/04 04:15:10;;;;;;;8.65;6.60;;;5.50;52.10;;;;;;5062375;28;20518;-43
2022/04/04 04:17:38;;;;;;;9.82;6.30;;;5.50;52.10;;;;;;5060480;28;20052;-44
2022/04/04 04:20:22;;;;;;;7.03;5.88;;;5.50;52.10;;;;;;5057764;28;20416;-43
2022/04/04 04:22:52;;;;;;;;;;;5.50;52.10;;;;;;5062203;28;20075;-43
2022/04/04 04:25:20;;;;;;;10.55;6.20;;;5.60;52.20;;;;;;5060809;28;20392;-45
2022/04/04 04:27:47;;;;;;;14.05;6.38;;;5.50;51.90;;;;;;5061400;28;20115;-44
2022/04/04 04:30:17;;;;;;;11.80;6.35;;;5.50;51.90;;;;;;5055299;28;20050;-43
2022/04/04 04:32:48;;;;;;;9.75;6.28;;;5.50;52.10;;;;;;5059449;28;20059;-44
2022/04/04 04:35:16;;;;;;;9.25;6.50;;;5.50;52.10;;;;;;5062356;28;20393;-44
2022/04/04 04:37:44;;;;;;;14.02;7.25;;;5.50;52.10;;;;;;5059943;28;20055;-43
2022/04/04 04:40:12;;;;;;;11.98;6.78;;;5.50;52.10;;;;;;5041363;28;20389;-45
2022/04/04 04:42:42;;;;;;;10.95;6.97;;;5.50;52.20;;;;;;5060525;28;20044;-44
2022/04/04 04:45:10;;;;;;;10.35;7.22;;;5.50;52.20;;;;;;5062628;28;20500;-45
2022/04/04 04:47:39;;;;;;;14.13;7.18;;;5.50;52.30;;;;;;5061244;28;20408;-44
2022/04/04 04:50:08;;;;;;;12.18;7.22;;;5.40;52.20;;;;;;5061724;28;20053;-44
2022/04/04 04:52:35;;;;;;;12.88;8.15;;;5.50;52.30;;;;;;5059639;28;20064;-43
2022/04/04 04:55:04;;;;;;;12.13;7.50;;;5.50;52.30;;;;;;5059657;28;20057;-43
2022/04/04 04:57:32;;;;;;;11.38;7.82;;;5.50;52.40;;;;;;5058457;28;20601;-44
2022/04/04 05:00:02;;;;;;;10.55;7.25;;;5.40;52.40;;;;;;5059348;28;20060;-44
2022/04/04 05:02:30;;;;;;;13.63;7.88;;;5.40;52.40;;;;;;5059932;28;20045;-44
2022/04/04 05:04:59;;;;;;;16.95;8.65;;;5.40;52.40;;;;;;5060678;28;20075;-44
2022/04/04 05:07:27;;;;;;;15.25;8.75;;;5.50;52.50;;;;;;5058838;28;20382;-43
2022/04/04 05:09:55;;;;;;;12.68;8.20;;;5.50;52.50;;;;;;5060812;28;20512;-43
2022/04/04 05:12:22;;;;;;;16.25;8.85;;;5.50;52.50;;;;;;5058696;28;20056;-43
2022/04/04 05:14:50;;;;;;;17.67;8.80;;;5.50;52.60;;;;;;5060981;28;20496;-44
2022/04/04 05:17:17;;;;;;;13.05;8.73;;;5.50;52.60;;;;;;5060210;28;20416;-44
2022/04/04 05:19:45;;;;;;;13.43;7.93;;;5.50;52.60;;;;;;5059848;28;20055;-45
2022/04/04 05:22:14;;;;;;;14.82;8.70;;;5.50;52.60;;;;;;5063343;28;20048;-45
2022/04/04 05:24:42;;;;;;;11.68;7.63;;;5.50;52.60;;;;;;5064901;28;20056;-43
2022/04/04 05:27:09;;;;;;;12.13;8.02;;;5.50;52.70;;;;;;5064718;28;20110;-43
2022/04/04 05:29:37;;;;;;;13.93;8.75;;;5.50;52.60;;;;;;5064806;28;20071;-43
2022/04/04 05:32:05;;;;;;;13.40;8.80;;;5.50;52.60;;;;;;5062848;28;20575;-43
2022/04/04 05:34:33;;;;;;;23.70;12.27;;;5.50;52.60;;;;;;5064398;28;20412;-46
2022/04/04 05:37:03;;;;;;;66.60;31.92;;;5.50;52.60;;;;;;5074383;28;20052;-43
2022/04/04 05:39:32;;;;;;;48.53;25.23;;;5.50;52.70;;;;;;5083983;28;20059;-43
2022/04/04 05:42:00;;;;;;;37.70;20.88;;;5.50;52.70;;;;;;5082642;28;20066;-43
2022/04/04 05:44:28;;;;;;;21.63;13.95;;;5.60;52.70;;;;;;5085690;28;20059;-44
2022/04/04 05:46:56;;;;;;;18.55;12.80;;;5.60;52.70;;;;;;5081557;28;20052;-43
2022/04/04 05:49:23;;;;;;;20.75;15.07;;;5.60;52.70;;;;;;5084077;28;20059;-43
2022/04/04 05:51:51;;;;;;;21.30;14.18;;;5.60;52.80;;;;;;5081781;28;20052;-42
2022/04/04 05:54:19;;;;;;;15.07;9.32;;;5.70;52.70;;;;;;5083277;28;20061;-43
2022/04/04 05:56:48;;;;;;;16.05;9.10;;;5.70;52.70;;;;;;5083925;28;20534;-43
2022/04/04 05:59:15;;;;;;;17.52;7.80;;;5.70;52.70;;;;;;5083778;28;20059;-43
2022/04/04 06:01:43;;;;;;;14.27;8.40;;;5.80;52.60;;;;;;5081061;28;20063;-43
2022/04/04 06:04:11;;;;;;;15.98;8.38;;;5.80;52.60;;;;;;5084920;28;20495;-45
2022/04/04 06:06:38;;;;;;;12.27;7.75;;;5.80;52.50;;;;;;5080406;28;20083;-43
2022/04/04 06:09:06;;;;;;;168.68;49.30;;;5.90;52.50;;;;;;5083910;28;20055;-43
2022/04/04 06:11:34;;;;;;;65.28;26.98;;;5.90;52.50;;;;;;5081632;28;20066;-44
2022/04/04 06:14:03;;;;;;;48.60;25.58;;;5.90;52.40;;;;;;5080898;28;20052;-46
2022/04/04 06:16:31;;;;;;;102.25;47.30;;;6.00;52.50;;;;;;5082872;28;20526;-43
2022/04/04 06:19:00;;;;;;;32.45;19.92;;;6.00;52.40;;;;;;5081823;28;20071;-43
2022/04/04 06:21:27;;;;;;;17.75;11.07;;;6.10;52.40;;;;;;5084992;28;20048;-43
2022/04/04 06:23:55;;;;;;;14.55;8.90;;;6.20;52.40;;;;;;5083560;28;20044;-43
2022/04/04 06:26:23;;;;;;;14.40;8.73;;;6.20;52.30;;;;;;5081196;28;20056;-43
2022/04/04 06:28:51;;;;;;;16.40;8.13;;;6.30;52.20;;;;;;5083385;28;20056;-43
2022/04/04 06:31:19;;;;;;;12.77;7.65;;;6.40;52.20;;;;;;5079166;28;20070;-44
2022/04/04 06:33:48;;;;;;;16.70;8.48;;;6.40;52.10;;;;;;5081639;28;20986;-42
2022/04/04 06:36:15;;;;;;;11.95;7.75;;;6.50;52.00;;;;;;5080218;28;20071;-42
2022/04/04 06:38:43;;;;;;;12.23;7.53;;;6.60;51.90;;;;;;5064061;28;20061;-44
2022/04/04 06:41:11;;;;;;;12.88;8.35;;;6.60;51.80;;;;;;5060977;28;20071;-44
2022/04/04 06:43:39;;;;;;;14.35;7.75;;;6.70;51.70;;;;;;5058790;28;20522;-42
2022/04/04 06:46:07;;;;;;;11.43;7.47;;;6.80;51.70;;;;;;5060963;28;20064;-48
2022/04/04 06:48:36;;;;;;;13.55;8.43;;;6.80;51.50;;;;;;5064220;28;20071;-44
2022/04/04 06:51:05;;;;;;;16.08;7.60;;;6.90;51.40;;;;;;5063093;28;20056;-42
2022/04/04 06:53:32;;;;;;;11.80;7.32;;;7.00;51.10;;;;;;5061951;28;20063;-44
2022/04/04 06:56:00;;;;;;;8.38;6.10;;;7.10;51.10;;;;;;5063057;28;20057;-42
2022/04/04 06:58:27;;;;;;;11.38;6.38;;;7.10;50.90;;;;;;5060777;28;20053;-43
2022/04/04 07:00:55;;;;;;;9.60;7.00;;;7.20;50.60;;;;;;5061373;28;20056;-42
2022/04/04 07:03:23;;;;;;;10.38;6.78;;;7.30;50.30;;;;;;5061743;28;20492;-41
2022/04/04 07:05:52;;;;;;;9.23;6.32;;;7.30;50.10;;;;;;5062800;28;20052;-42
2022/04/04 07:08:19;;;;;;;13.30;7.18;;;7.40;49.70;;;;;;5062170;28;20067;-42
2022/04/04 07:10:48;;;;;;;10.77;6.38;;;7.40;49.80;;;;;;5062612;28;20056;-41
2022/04/04 07:13:15;;;;;;;8.70;6.03;;;7.40;49.60;;;;;;5055899;28;20389;-43
2022/04/04 07:15:43;;;;;;;12.23;5.90;;;7.50;49.70;;;;;;5063068;28;20048;-42
2022/04/04 07:18:12;;;;;;;12.27;6.97;;;7.50;49.50;;;;;;5063744;28;20056;-42
2022/04/04 07:20:40;;;;;;;11.23;6.00;;;7.60;49.30;;;;;;5062512;28;20519;-42
2022/04/04 07:23:09;;;;;;;12.20;6.07;;;7.60;49.20;;;;;;5063713;28;20064;-43
2022/04/04 07:25:36;;;;;;;12.65;6.55;;;7.60;48.90;;;;;;5061657;28;20048;-43
2022/04/04 07:28:04;;;;;;;10.77;6.20;;;7.70;48.70;;;;;;5062370;28;20052;-42
2022/04/04 07:30:32;;;;;;;8.98;5.80;;;7.80;48.90;;;;;;5060592;28;20060;-43
2022/04/04 07:33:01;;;;;;;14.13;6.28;;;7.80;48.90;;;;;;5058595;28;20142;-43
2022/04/04 07:35:29;;;;;;;10.05;6.22;;;7.80;49.00;;;;;;5059105;28;20544;-41
2022/04/04 07:37:56;;;;;;;9.00;5.53;;;7.90;48.80;;;;;;5076812;28;20064;-43
2022/04/04 07:40:26;;;;;;;10.38;5.57;;;7.90;48.40;;;;;;5077279;28;20057;-42
2022/04/04 07:42:54;;;;;;;14.32;5.63;;;7.90;48.20;;;;;;5080613;28;20416;-42
2022/04/04 07:45:21;;;;;;;8.60;5.18;;;8.00;48.20;;;;;;5080919;28;20081;-42
2022/04/04 07:47:50;;;;;;;9.63;5.68;;;8.00;48.00;;;;;;5080667;28;20063;-47
2022/04/04 07:50:18;;;;;;;8.43;5.28;;;8.00;47.90;;;;;;5083441;28;20499;-43
2022/04/04 07:52:45;;;;;;;9.48;5.60;;;8.10;47.80;;;;;;5078851;28;20427;-42
2022/04/04 07:55:13;;;;;;;9.50;5.35;;;8.10;47.80;;;;;;5082461;28;20056;-42
2022/04/04 07:57:42;;;;;;;10.77;5.35;;;8.10;47.70;;;;;;5079478;28;20488;-40
2022/04/04 08:00:14;;;;;;;8.73;5.13;;;8.10;47.50;;;;;;5079112;28;20491;-42
2022/04/04 08:02:42;;;;;;;8.23;5.40;;;8.10;47.40;;;;;;5080491;28;20407;-41
2022/04/04 08:05:10;;;;;;;7.93;5.10;;;8.10;47.40;;;;;;5080179;28;20916;-42
2022/04/04 08:07:40;;;;;;;11.27;6.15;;;8.20;47.40;;;;;;5081245;28;20055;-42
2022/04/04 08:10:08;;;;;;;7.97;5.38;;;8.20;47.60;;;;;;5078193;28;20048;-45
2022/04/04 08:12:37;;;;;;;9.63;5.75;;;8.30;47.50;;;;;;5079209;28;20059;-44
2022/04/04 08:15:06;;;;;;;9.43;6.03;;;8.30;47.40;;;;;;5081225;28;20052;-43
2022/04/04 08:17:34;;;;;;;8.57;5.25;;;8.30;47.20;;;;;;5079458;28;20483;-42
2022/04/04 08:20:01;;;;;;;9.93;5.55;;;8.40;47.40;;;;;;5078624;28;20052;-42
2022/04/04 08:22:28;;;;;;;8.40;5.47;;;8.40;47.20;;;;;;5078194;28;20495;-43
2022/04/04 08:24:59;;;;;;;11.80;5.57;;;8.50;47.20;;;;;;5075615;28;20047;-41
2022/04/04 08:27:26;;;;;;;8.73;5.72;;;8.50;46.90;;;;;;5078479;28;20583;-44
2022/04/04 08:29:54;;;;;;;11.55;5.18;;;8.60;47.00;;;;;;5080492;28;20063;-41
2022/04/04 08:32:22;;;;;;;8.65;5.18;;;8.60;46.50;;;;;;5080532;28;20051;-44
2022/04/04 08:34:50;;;;;;;8.30;5.45;;;8.60;46.50;;;;;;5080181;28;20407;-42
2022/04/04 08:37:17;;;;;;;7.20;4.80;;;8.70;46.60;;;;;;5067940;28;20068;-41
2022/04/04 08:39:47;;;;;;;8.25;4.72;;;8.80;46.60;;;;;;5057304;28;20060;-44
2022/04/04 08:42:16;;;;;;;6.97;4.38;;;8.80;46.50;;;;;;5053280;28;20060;-42
2022/04/04 08:44:46;;;;;;;6.22;4.32;;;8.90;46.10;;;;;;5059598;28;20053;-43
2022/04/04 08:47:15;;;;;;;7.68;3.95;;;9.00;46.00;;;;;;5055986;28;21246;-42
2022/04/04 08:49:44;;;;;;;5.78;3.70;;;9.00;45.70;;;;;;5059807;28;20063;-44
2022/04/04 08:52:12;;;;;;;6.05;3.88;;;9.10;45.70;;;;;;5054339;28;20428;-45
2022/04/04 08:54:39;;;;;;;5.70;3.95;;;9.10;45.30;;;;;;5056642;28;20056;-43
2022/04/04 08:57:07;;;;;;;9.45;4.20;;;9.20;45.20;;;;;;5062526;28;20508;-42
2022/04/04 08:59:34;;;;;;;5.45;3.92;;;9.30;45.20;;;;;;5061542;28;20064;-43
2022/04/04 09:02:02;;;;;;;5.88;3.70;;;9.40;45.20;;;;;;5060753;28;20063;-44
2022/04/04 09:04:33;;;;;;;8.38;3.58;;;9.40;44.90;;;;;;5065418;28;20404;-42
2022/04/04 09:07:07;;;;;;;6.65;3.92;;;9.50;44.70;;;;;;5061623;28;20060;-41
2022/04/04 09:09:42;;;;;;;6.50;3.70;;;9.60;44.30;;;;;;5065115;28;20060;-43
2022/04/04 09:12:12;;;;;;;5.45;3.40;;;9.60;44.10;;;;;;5065556;28;20060;-43
2022/04/04 09:14:43;;;;;;;6.00;3.15;;;9.70;44.10;;;;;;5065024;28;20052;-42
2022/04/04 09:17:11;;;;;;;7.97;3.08;;;9.80;43.80;;;;;;5063751;28;20060;-43
2022/04/04 09:19:40;;;;;;;3.65;2.80;;;9.80;43.90;;;;;;5063578;28;20056;-41
2022/04/04 09:22:10;;;;;;;7.60;4.55;;;9.90;44.10;;;;;;5065778;28;20500;-40
2022/04/04 09:24:52;;;;;;;6.68;3.03;;;10.00;42.90;;;;;;5064556;28;20055;-41
2022/04/04 09:27:26;;;;;;;6.93;3.47;;;10.00;42.60;;;;;;5065307;28;20060;-42
2022/04/04 09:29:55;;;;;;;4.80;2.72;;;10.10;42.60;;;;;;5065959;28;21100;-42
2022/04/04 09:32:23;;;;;;;6.03;3.50;;;10.10;42.90;;;;;;5065844;28;20060;-41
2022/04/04 09:34:57;;;;;;;7.15;3.55;;;10.10;42.40;;;;;;5064408;28;20060;-41
2022/04/04 09:37:26;;;;;;;5.53;3.43;;;10.20;42.20;;;;;;5063415;28;20060;-42
2022/04/04 09:40:04;;;;;;;8.52;3.80;;;10.30;41.80;;;;;;5063630;28;20052;-42
2022/04/04 09:42:32;;;;;;;5.45;3.00;;;10.30;41.70;;;;;;5065410;28;20060;-42
2022/04/04 09:45:02;;;;;;;6.13;3.50;;;10.40;42.00;;;;;;5063782;28;20045;-42
2022/04/04 09:47:50;;;;;;;4.93;3.28;;;10.50;41.80;;;;;;5061243;28;20059;-42
2022/04/04 09:50:47;;;;;;;5.00;3.03;;;10.50;41.70;;;;;;5063172;28;20056;-42
2022/04/04 09:53:17;;;;;;;7.35;3.22;;;10.60;42.10;;;;;;5064033;28;20048;-41
2022/04/04 09:55:47;;;;;;;4.55;3.10;;;10.80;41.40;;;;;;5063945;28;20056;-41
2022/04/04 09:58:16;;;;;;;4.00;3.08;;;10.80;40.90;;;;;;5062072;28;20056;-44
2022/04/04 10:00:45;;;;;;;5.00;3.20;;;10.80;40.60;;;;;;5061733;28;20515;-43
2022/04/04 10:03:13;;;;;;;8.90;3.13;;;10.80;40.50;;;;;;5063901;28;20491;-41
2022/04/04 10:05:43;;;;;;;7.28;3.38;;;10.90;40.40;;;;;;5065344;28;20534;-41
2022/04/04 10:08:13;;;;;;;4.63;3.13;;;10.80;39.80;;;;;;5061343;28;20416;-41
2022/04/04 10:10:43;;;;;;;8.13;3.47;;;10.80;39.60;;;;;;5062524;28;20064;-41
2022/04/04 10:13:12;;;;;;;4.72;3.35;;;10.80;39.80;;;;;;5063813;28;20059;-41
2022/04/04 10:15:40;;;;;;;6.57;3.90;;;10.70;39.60;;;;;;5061656;28;20053;-41
2022/04/04 10:18:08;;;;;;;5.18;2.88;;;10.70;39.60;;;;;;5061840;28;20071;-42
2022/04/04 10:20:36;;;;;;;7.53;3.45;;;10.80;40.40;;;;;;5063549;28;20065;-41
2022/04/04 10:23:05;;;;;;;8.52;3.38;;;10.80;40.20;;;;;;5059091;28;20492;-43
2022/04/04 10:25:35;;;;;;;4.90;3.15;;;10.80;40.40;;;;;;5062586;28;20067;-41
2022/04/04 10:28:05;;;;;;;7.03;3.50;;;10.80;40.10;;;;;;5062600;28;20061;-41
2022/04/04 10:30:34;;;;;;;6.00;3.30;;;10.80;39.80;;;;;;5064798;28;20064;-40
2022/04/04 10:33:04;;;;;;;6.00;3.17;;;10.80;40.10;;;;;;5063284;28;20048;-42
2022/04/04 10:35:32;;;;;;;5.75;3.33;;;10.80;40.30;;;;;;5064271;28;20057;-41
2022/04/04 10:38:04;;;;;;;6.25;3.40;;;10.80;40.40;;;;;;5082283;28;20056;-42
2022/04/04 10:40:33;;;;;;;5.45;3.47;;;10.80;40.70;;;;;;5083241;28;20083;-42
2022/04/04 10:43:12;;;;;;;5.63;3.20;;;10.90;40.60;;;;;;5081301;28;20070;-42
2022/04/04 10:45:57;;;;;;;5.80;3.15;;;10.90;40.50;;;;;;5081534;28;20051;-43
2022/04/04 10:48:30;;;;;;;6.20;3.13;;;10.90;40.40;;;;;;5084800;28;20380;-42
2022/04/04 10:51:03;;;;;;;4.57;3.35;;;11.00;40.60;;;;;;5083746;28;20058;-42
2022/04/04 10:53:40;;;;;;;5.43;3.80;;;11.00;40.60;;;;;;5082828;28;20059;-42
2022/04/04 10:56:11;;;;;;;8.52;3.67;;;11.00;40.90;;;;;;5083942;28;20393;-40
2022/04/04 10:58:40;;;;;;;6.43;3.60;;;11.00;40.80;;;;;;5084516;28;20074;-41
2022/04/04 11:01:09;;;;;;;9.20;4.78;;;11.00;40.80;;;;;;5081570;28;20044;-41
2022/04/04 11:03:38;;;;;;;8.65;3.92;;;10.90;40.80;;;;;;5083751;28;20122;-46
2022/04/04 11:09:12;;;;;;;6.10;4.80;;;10.90;40.50;;;;;;5090067;28;20062;-42
2022/04/04 11:11:48;;;;;;;10.15;5.57;;;10.80;40.90;;;;;;5081761;28;20392;-41
2022/04/04 11:14:19;;;;;;;9.95;4.15;;;10.80;41.50;;;;;;5081987;28;20605;-41
2022/04/04 11:17:36;;;;;;;5.50;3.35;;;10.80;41.40;;;;;;5083866;28;20048;-45
2022/04/04 11:20:31;;;;;;;5.15;3.40;;;10.70;42.10;;;;;;5077298;28;20056;-41
2022/04/04 11:23:00;;;;;;;6.13;3.63;;;10.70;42.10;;;;;;5082806;28;20059;-43
2022/04/04 11:25:33;;;;;;;5.10;3.00;;;10.70;42.10;;;;;;5083758;28;20506;-42
2022/04/04 11:28:02;;;;;;;6.18;3.00;;;10.60;42.00;;;;;;5080564;28;20505;-41
2022/04/04 11:30:31;;;;;;;7.07;3.13;;;10.60;41.70;;;;;;5083390;28;20499;-41
2022/04/04 11:32:59;;;;;;;4.53;3.30;;;10.50;41.60;;;;;;5081938;28;20067;-42
2022/04/04 11:35:30;;;;;;;7.10;3.15;;;10.50;41.70;;;;;;5081103;28;20055;-41
2022/04/04 11:38:00;;;;;;;7.15;3.05;;;10.50;41.80;;;;;;5083603;28;20056;-41
2022/04/04 11:40:34;;;;;;;6.20;3.78;;;10.50;42.10;;;;;;5081695;28;20052;-41
2022/04/04 11:43:04;;;;;;;5.60;3.15;;;10.50;42.30;;;;;;5080136;28;20600;-42
2022/04/04 11:45:36;;;;;;;5.82;3.20;;;10.60;42.10;;;;;;5083445;28;20051;-42
2022/04/04 11:48:06;;;;;;;6.95;3.47;;;10.60;42.10;;;;;;5082529;28;20063;-47
2022/04/04 11:50:35;;;;;;;7.28;3.90;;;10.60;42.20;;;;;;5078578;28;20052;-48
2022/04/04 11:53:05;;;;;;;9.00;4.07;;;10.60;42.30;;;;;;5081947;28;20063;-41
2022/04/04 11:55:36;;;;;;;5.88;3.53;;;10.60;42.40;;;;;;5082228;28;20499;-43
2022/04/04 11:58:10;;;;;;;4.53;3.22;;;10.60;42.60;;;;;;5081772;28;20066;-42
2022/04/04 12:00:43;;;;;;;7.25;3.67;;;10.60;43.00;;;;;;5082035;28;20048;-43
2022/04/04 12:03:11;;;;;;;9.50;3.55;;;10.60;43.40;;;;;;5080197;28;20060;-43
2022/04/04 12:05:41;;;;;;;7.80;3.50;;;10.50;44.00;;;;;;5079924;28;20052;-41
2022/04/04 12:08:09;;;;;;;9.98;3.55;;;10.50;44.40;;;;;;5081560;28;20047;-41
2022/04/04 12:10:37;;;;;;;6.00;3.75;;;10.40;44.90;;;;;;5077538;28;20056;-41
2022/04/04 12:13:06;;;;;;;8.40;4.07;;;10.30;45.30;;;;;;5075885;28;20059;-46
2022/04/04 12:15:36;;;;;;;10.55;5.10;;;10.30;45.60;;;;;;5083165;28;20062;-41
2022/04/04 12:18:07;;;;;;;9.13;4.40;;;10.20;46.00;;;;;;5081972;28;20056;-42
2022/04/04 12:20:40;;;;;;;8.30;5.03;;;10.10;46.30;;;;;;5082420;28;20056;-41
2022/04/04 12:25:55;;;;;;;7.38;4.95;;;10.00;46.90;;;;;;5049692;28;20055;-44
2022/04/04 12:28:25;;;;;;;8.95;4.45;;;9.90;47.40;;;;;;5080446;28;20411;-45
2022/04/04 12:30:54;;;;;;;7.45;3.83;;;9.80;47.70;;;;;;5081652;28;20060;-41
2022/04/04 12:33:31;;;;;;;8.57;4.65;;;9.80;47.80;;;;;;5081235;28;20063;-42
2022/04/04 12:35:59;;;;;;;12.88;4.60;;;9.70;48.30;;;;;;5082133;28;20066;-42
2022/04/04 12:38:29;;;;;;;7.78;3.97;;;9.60;48.40;;;;;;5081458;28;20487;-41
2022/04/04 12:41:09;;;;;;;9.50;4.78;;;9.60;48.70;;;;;;5079810;28;20055;-41
2022/04/04 12:43:38;;;;;;;8.32;4.97;;;9.50;49.20;;;;;;5079704;28;20412;-42
2022/04/04 12:46:08;;;;;;;7.35;4.38;;;9.50;49.30;;;;;;5082162;28;20554;-42
2022/04/04 12:48:38;;;;;;;6.82;4.70;;;9.40;49.60;;;;;;5082729;28;20059;-42
2022/04/04 12:51:07;;;;;;;9.15;5.03;;;9.40;49.90;;;;;;5081411;28;20047;-42
2022/04/04 12:53:48;;;;;;;7.90;4.35;;;9.40;50.10;;;;;;5080574;28;20056;-41
2022/04/04 12:56:16;;;;;;;8.57;4.85;;;9.30;50.30;;;;;;5079986;28;20055;-41
2022/04/04 12:58:44;;;;;;;11.68;5.80;;;9.30;50.30;;;;;;5079580;28;20059;-42
2022/04/04 13:01:15;;;;;;;8.55;5.10;;;9.30;50.50;;;;;;5078109;28;20210;-42
2022/04/04 13:03:52;;;;;;;8.32;4.95;;;9.30;50.60;;;;;;5075617;28;20048;-44
2022/04/04 13:06:21;;;;;;;9.82;5.55;;;9.20;50.90;;;;;;5081823;28;20052;-43
2022/04/04 13:08:56;;;;;;;17.20;9.32;;;9.20;51.00;;;;;;5070958;28;20051;-42
2022/04/04 13:11:24;;;;;;;8.45;4.85;;;9.20;51.10;;;;;;5078796;28;20048;-42
2022/04/04 13:14:05;;;;;;;8.23;4.45;;;9.20;51.20;;;;;;5079005;28;20499;-41